Time;durP1;ratioP1;P1;durP2;ratioP2;P2;SDS_P1;SDS_P2;PMS_P1;PMS_P2;Temp;Humidity;BMP_temperature;BMP_pressure;BME280_temperature;BME280_humidity;BME280_pressure;Samples;Min_cycle;Max_cycle;Signal;HPM_P1;HPM_P2
2023/04/30 00:00:43;;;;;;;15.75;11.27;;;;;;;14.22;59.61;97590.50;4886581;28;20301;-82
2023/04/30 00:03:09;;;;;;;14.40;11.02;;;;;;;14.31;59.50;97585.53;4903440;28;20310;-81
2023/04/30 00:05:34;;;;;;;15.93;11.13;;;;;;;14.24;59.35;97581.34;4892000;28;20183;-83
2023/04/30 00:07:59;;;;;;;14.38;10.77;;;;;;;14.29;59.64;97591.06;4895129;28;20103;-81
2023/04/30 00:10:25;;;;;;;14.77;11.00;;;;;;;14.19;59.82;97598.88;4877972;28;20805;-80
2023/04/30 00:12:50;;;;;;;14.80;11.88;;;;;;;14.14;59.81;97589.16;4886155;28;20151;-81
2023/04/30 00:15:16;;;;;;;14.65;11.07;;;;;;;14.12;59.46;97588.66;4904357;28;20254;-81
2023/04/30 00:17:41;;;;;;;14.32;10.48;;;;;;;14.08;60.16;97576.31;4879126;28;20666;-81
2023/04/30 00:20:07;;;;;;;14.18;10.65;;;;;;;14.11;60.17;97578.44;4883850;28;20320;-82
2023/04/30 00:22:32;;;;;;;15.27;11.80;;;;;;;14.16;59.98;97576.59;4882004;28;20296;-82
2023/04/30 00:24:58;;;;;;;14.50;11.10;;;;;;;14.10;59.69;97576.84;4893479;28;20379;-82
2023/04/30 00:27:23;;;;;;;16.67;11.75;;;;;;;14.18;59.66;97576.34;4906723;28;20178;-81
2023/04/30 00:29:48;;;;;;;15.65;11.77;;;;;;;14.15;59.86;97569.78;4877796;28;20408;-82
2023/04/30 00:32:14;;;;;;;16.20;10.40;;;;;;;14.21;59.74;97578.47;4875335;28;20277;-81
2023/04/30 00:34:39;;;;;;;14.23;10.48;;;;;;;14.17;59.60;97574.75;4910693;28;20195;-81
2023/04/30 00:37:04;;;;;;;15.48;10.60;;;;;;;14.18;59.77;97573.72;4881116;28;20316;-82
2023/04/30 00:39:30;;;;;;;17.05;10.98;;;;;;;14.07;59.75;97587.81;4872920;28;20267;-82
2023/04/30 00:41:55;;;;;;;15.80;10.98;;;;;;;14.03;59.67;97580.50;4909759;28;20206;-81
2023/04/30 00:44:20;;;;;;;16.67;11.00;;;;;;;14.03;59.37;97579.69;4874727;28;20190;-81
2023/04/30 00:46:46;;;;;;;13.85;10.70;;;;;;;13.91;59.94;97582.53;4889257;28;20323;-82
2023/04/30 00:49:11;;;;;;;15.25;10.52;;;;;;;14.00;59.47;97578.38;4875470;28;20194;-80
2023/04/30 00:51:39;;;;;;;15.75;10.65;;;;;;;13.97;60.01;97591.22;4908753;28;20607;-81
2023/04/30 00:54:06;;;;;;;15.48;10.13;;;;;;;14.05;59.63;97586.25;4873750;28;20172;-81
2023/04/30 00:56:31;;;;;;;15.95;10.65;;;;;;;14.12;59.53;97583.41;4873267;28;20287;-81
2023/04/30 00:58:57;;;;;;;14.48;10.68;;;;;;;14.13;59.66;97579.72;4878881;28;20212;-81
2023/04/30 01:01:30;;;;;;;17.00;11.20;;;;;;;14.09;59.33;97577.91;4892807;28;20171;-81
2023/04/30 01:03:56;;;;;;;13.77;10.52;;;;;;;13.89;60.30;97574.16;4964344;23;20416;-78
2023/04/30 01:06:21;;;;;;;16.38;11.27;;;;;;;13.86;60.30;97565.00;4864551;28;20263;-79
2023/04/30 01:08:47;;;;;;;14.75;11.40;;;;;;;13.84;60.52;97561.81;4894853;28;20175;-79
2023/04/30 01:11:19;;;;;;;13.45;11.10;;;;;;;13.93;60.13;97564.75;4878082;28;20188;-80
2023/04/30 01:14:10;;;;;;;16.88;10.85;;;;;;;13.84;60.61;97561.81;4889783;28;20207;-80
2023/04/30 01:16:42;;;;;;;16.20;11.07;;;;;;;13.92;60.22;97563.16;4890201;28;20333;-81
2023/04/30 01:19:28;;;;;;;17.58;12.27;;;;;;;13.70;60.71;97563.34;4881678;28;20269;-81
2023/04/30 01:22:00;;;;;;;17.48;12.57;;;;;;;13.55;61.18;97571.88;4895129;28;20168;-82
2023/04/30 01:24:28;;;;;;;17.58;12.23;;;;;;;13.75;60.80;97565.19;4866293;28;20233;-81
2023/04/30 01:27:06;;;;;;;16.13;12.20;;;;;;;13.84;60.55;97566.28;4894440;28;20116;-81
2023/04/30 01:29:33;;;;;;;15.88;11.60;;;;;;;13.72;60.83;97556.00;4906222;28;20541;-82
2023/04/30 01:31:59;;;;;;;16.48;13.05;;;;;;;13.60;61.09;97564.06;4908227;28;20100;-80
2023/04/30 01:34:25;;;;;;;17.60;11.93;;;;;;;13.76;60.45;97566.75;4893934;28;20216;-81
2023/04/30 01:37:15;;;;;;;15.73;11.48;;;;;;;13.82;60.76;97568.34;4909587;28;20194;-82
2023/04/30 01:40:13;;;;;;;15.10;10.90;;;;;;;13.92;60.48;97572.84;4893968;28;20315;-81
2023/04/30 01:43:04;;;;;;;16.45;11.57;;;;;;;13.88;60.38;97569.16;4866000;28;20618;-80
2023/04/30 01:45:43;;;;;;;17.85;12.65;;;;;;;13.84;60.32;97576.75;4864369;28;20783;-80
2023/04/30 01:48:38;;;;;;;17.10;13.25;;;;;;;13.99;59.96;97574.19;5513175;23;20959;-79
2023/04/30 01:51:19;;;;;;;16.55;12.20;;;;;;;13.97;60.00;97580.72;4914528;28;20223;-80
2023/04/30 01:53:45;;;;;;;16.25;12.02;;;;;;;13.58;60.14;97539.19;5252196;23;20206;-81
2023/04/30 01:56:17;;;;;;;17.83;12.45;;;;;;;13.87;60.01;97568.38;4928065;28;20699;-80
2023/04/30 01:58:44;;;;;;;14.77;11.77;;;;;;;13.71;60.26;97570.16;4912956;28;20438;-81
2023/04/30 02:01:30;;;;;;;17.05;11.55;;;;;;;13.80;60.25;97568.63;4881323;28;20273;-82
2023/04/30 02:03:56;;;;;;;16.05;12.27;;;;;;;13.75;60.42;97568.59;4886845;28;20168;-80
2023/04/30 02:06:26;;;;;;;16.75;12.00;;;;;;;13.71;60.74;97570.16;4902726;28;20288;-81
2023/04/30 02:09:01;;;;;;;17.17;13.20;;;;;;;13.64;60.59;97561.72;4910654;28;20240;-80
2023/04/30 02:11:26;;;;;;;17.98;12.70;;;;;;;13.63;60.24;97557.53;4906735;28;20182;-80
2023/04/30 02:13:51;;;;;;;19.73;13.27;;;;;;;13.71;60.66;97564.09;4882445;28;20277;-79
2023/04/30 02:16:17;;;;;;;18.35;13.45;;;;;;;13.68;60.76;97560.97;4898946;28;20616;-80
2023/04/30 02:18:42;;;;;;;18.33;13.60;;;;;;;13.41;61.53;97555.84;4914189;28;20454;-80
2023/04/30 02:21:07;;;;;;;17.15;13.30;;;;;;;13.62;60.52;97556.75;4897978;28;20274;-79
2023/04/30 02:23:33;;;;;;;17.63;13.05;;;;;;;13.80;60.08;97566.00;4901602;28;20162;-80
2023/04/30 02:25:58;;;;;;;18.88;13.50;;;;;;;13.51;60.84;97559.59;4901922;28;20195;-80
2023/04/30 02:28:24;;;;;;;18.90;13.45;;;;;;;13.65;60.51;97566.69;4897725;28;20635;-79
2023/04/30 02:30:49;;;;;;;18.88;14.35;;;;;;;13.71;60.44;97575.38;4889429;28;20202;-79
2023/04/30 02:33:15;;;;;;;18.95;14.00;;;;;;;13.61;60.53;97567.47;4912885;28;20128;-79
2023/04/30 02:35:40;;;;;;;19.75;13.95;;;;;;;13.70;60.63;97578.25;4930087;28;20679;-80
2023/04/30 02:38:05;;;;;;;17.88;13.80;;;;;;;13.55;60.70;97565.88;4898395;28;20106;-81
2023/04/30 02:40:31;;;;;;;19.73;13.15;;;;;;;13.65;60.40;97564.09;4893070;28;20153;-80
2023/04/30 02:42:56;;;;;;;20.13;14.02;;;;;;;13.74;60.32;97566.22;4916206;28;20252;-81
2023/04/30 02:45:22;;;;;;;20.20;15.18;;;;;;;13.70;60.60;97579.03;4897917;28;20306;-80
2023/04/30 02:47:47;;;;;;;18.25;13.45;;;;;;;13.70;60.45;97575.63;4899278;28;20277;-80
2023/04/30 02:50:13;;;;;;;17.98;13.13;;;;;;;13.56;60.71;97576.09;4886470;28;20183;-82
2023/04/30 02:52:39;;;;;;;18.55;14.27;;;;;;;13.68;60.66;97570.66;4907086;28;20168;-78
2023/04/30 02:55:05;;;;;;;18.65;14.38;;;;;;;13.66;60.40;97564.91;4892660;28;20311;-79
2023/04/30 02:57:30;;;;;;;19.25;14.68;;;;;;;13.61;60.71;97568.25;4880048;28;20103;-79
2023/04/30 02:59:56;;;;;;;20.40;13.75;;;;;;;13.72;60.59;97576.16;4903734;28;20203;-79
2023/04/30 03:02:22;;;;;;;19.35;14.05;;;;;;;13.57;60.43;97559.34;4920042;28;20695;-79
2023/04/30 03:04:51;;;;;;;19.13;13.77;;;;;;;13.65;60.83;97566.69;4898231;28;20519;-81
2023/04/30 03:07:16;;;;;;;19.10;14.18;;;;;;;13.47;61.28;97561.91;4920577;28;20402;-78
2023/04/30 03:09:42;;;;;;;19.95;14.30;;;;;;;13.51;61.34;97562.97;4935779;28;20285;-79
2023/04/30 03:12:08;;;;;;;20.88;14.18;;;;;;;13.54;61.47;97562.47;4913331;28;20365;-79
2023/04/30 03:14:33;;;;;;;20.75;14.18;;;;;;;13.51;61.05;97549.13;4883282;28;20249;-79
2023/04/30 03:16:58;;;;;;;21.20;14.88;;;;;;;13.61;61.00;97560.41;4900457;28;20693;-79
2023/04/30 03:19:24;;;;;;;20.92;14.82;;;;;;;13.24;62.03;97550.75;4879797;28;20206;-78
2023/04/30 03:21:53;;;;;;;21.75;15.90;;;;;;;13.44;61.63;97557.97;4893916;28;20462;-79
2023/04/30 03:24:19;;;;;;;20.33;15.07;;;;;;;13.46;61.42;97548.03;4913620;28;20202;-78
2023/04/30 03:26:45;;;;;;;20.77;14.82;;;;;;;13.45;61.32;97548.28;4919521;28;20623;-78
2023/04/30 03:29:10;;;;;;;20.15;15.20;;;;;;;13.51;61.14;97544.66;4903899;28;20682;-79
2023/04/30 03:31:35;;;;;;;21.92;15.25;;;;;;;13.39;61.58;97544.06;4911313;28;20188;-80
2023/04/30 03:34:01;;;;;;;21.08;15.00;;;;;;;13.29;61.62;97550.78;4879484;28;20679;-79
2023/04/30 03:36:26;;;;;;;23.05;15.77;;;;;;;13.39;61.46;97554.53;4914531;28;20284;-79
2023/04/30 03:38:52;;;;;;;22.83;16.45;;;;;;;13.26;61.71;97547.88;4910496;28;20577;-81
2023/04/30 03:41:17;;;;;;;22.25;16.73;;;;;;;13.42;61.44;97559.28;4885794;28;20284;-78
2023/04/30 03:43:43;;;;;;;26.77;16.48;;;;;;;13.22;62.24;97546.81;4914446;28;20198;-78
2023/04/30 03:46:08;;;;;;;25.05;17.05;;;;;;;13.28;61.61;97543.19;4916028;28;20563;-80
2023/04/30 03:48:33;;;;;;;21.88;15.43;;;;;;;13.15;62.30;97551.47;4901991;28;20212;-79
2023/04/30 03:50:59;;;;;;;23.23;14.98;;;;;;;13.41;61.74;97539.38;4897407;28;20190;-79
2023/04/30 03:53:25;;;;;;;23.42;16.00;;;;;;;13.29;61.05;97510.78;4887802;28;20187;-79
2023/04/30 03:55:50;;;;;;;22.60;16.55;;;;;;;13.43;61.35;97538.06;4910201;28;20212;-79
2023/04/30 03:58:16;;;;;;;22.42;15.82;;;;;;;13.27;61.93;97526.72;4905901;28;20214;-79
2023/04/30 04:00:41;;;;;;;23.35;16.80;;;;;;;13.22;61.70;97537.13;4916599;28;20100;-79
2023/04/30 04:03:07;;;;;;;24.75;16.60;;;;;;;13.41;61.12;97528.91;4889088;28;20189;-78
2023/04/30 04:05:32;;;;;;;20.92;15.02;;;;;;;13.37;61.16;97549.56;4914277;28;20290;-80
2023/04/30 04:07:58;;;;;;;22.42;16.48;;;;;;;13.34;61.57;97546.66;4877205;28;20252;-78
2023/04/30 04:10:23;;;;;;;21.83;15.52;;;;;;;13.37;61.57;97541.72;4925181;28;20121;-80
2023/04/30 04:12:49;;;;;;;23.58;15.95;;;;;;;13.42;61.37;97551.44;4906851;28;20041;-78
2023/04/30 04:15:15;;;;;;;24.20;16.55;;;;;;;13.22;61.81;97550.22;4912256;28;20645;-79
2023/04/30 04:17:40;;;;;;;21.15;16.17;;;;;;;13.27;61.91;97552.84;4903069;28;20221;-79
2023/04/30 04:20:07;;;;;;;24.85;17.35;;;;;;;13.10;62.29;97550.38;4938280;28;20193;-80
2023/04/30 04:22:32;;;;;;;22.42;16.58;;;;;;;13.15;62.10;97552.25;4902966;28;20276;-80
2023/04/30 04:24:57;;;;;;;23.42;16.15;;;;;;;13.26;61.69;97548.69;4898432;28;20240;-79
2023/04/30 04:27:24;;;;;;;23.77;17.73;;;;;;;13.36;61.70;97557.66;4908158;28;20625;-79
2023/04/30 04:29:50;;;;;;;21.55;16.33;;;;;;;13.23;62.04;97559.66;4909615;28;20313;-79
2023/04/30 04:32:15;;;;;;;23.85;17.63;;;;;;;13.32;61.64;97560.00;4923342;28;20358;-78
2023/04/30 04:34:42;;;;;;;25.55;18.73;;;;;;;13.19;62.11;97545.47;4917116;28;20571;-79
2023/04/30 04:37:08;;;;;;;41.75;29.27;;;;;;;13.32;61.55;97548.75;4906437;28;20269;-79
2023/04/30 04:39:36;;;;;;;30.20;21.60;;;;;;;13.34;61.97;97565.75;4906208;28;20218;-79
2023/04/30 04:42:01;;;;;;;29.13;20.88;;;;;;;13.30;61.73;97559.44;4907660;28;20387;-80
2023/04/30 04:44:27;;;;;;;29.25;21.45;;;;;;;13.16;62.02;97546.00;4930035;28;20265;-80
2023/04/30 04:46:53;;;;;;;27.60;20.05;;;;;;;13.02;62.34;97552.69;4901201;28;20178;-79
2023/04/30 04:49:19;;;;;;;29.45;21.10;;;;;;;13.11;62.46;97551.19;4924413;28;20344;-80
2023/04/30 04:51:44;;;;;;;27.02;20.35;;;;;;;13.15;62.13;97562.72;4921970;28;20280;-81
2023/04/30 04:54:10;;;;;;;26.35;19.50;;;;;;;13.32;61.98;97557.38;4885853;28;20276;-79
2023/04/30 04:56:35;;;;;;;25.77;17.70;;;;;;;13.26;62.12;97569.59;4919268;28;20284;-80
2023/04/30 04:59:01;;;;;;;28.08;18.38;;;;;;;13.40;61.72;97564.75;4922912;28;20187;-81
2023/04/30 05:01:26;;;;;;;30.23;19.77;;;;;;;13.43;61.38;97560.81;4911113;28;20295;-80
2023/04/30 05:03:53;;;;;;;26.70;19.33;;;;;;;13.32;61.92;97567.06;4888310;28;20280;-81
2023/04/30 05:06:18;;;;;;;26.10;17.73;;;;;;;13.49;61.21;97568.47;4916749;28;20476;-79
2023/04/30 05:08:44;;;;;;;24.30;17.77;;;;;;;13.44;61.28;97567.66;4902455;28;20552;-81
2023/04/30 05:11:11;;;;;;;25.73;18.40;;;;;;;13.35;61.57;97561.28;4894936;28;20187;-81
2023/04/30 05:13:36;;;;;;;24.00;17.60;;;;;;;13.38;61.46;97560.78;4922214;28;20320;-80
2023/04/30 05:16:02;;;;;;;26.25;18.70;;;;;;;13.27;61.40;97571.16;4911515;28;20618;-80
2023/04/30 05:18:27;;;;;;;24.55;18.25;;;;;;;13.46;61.11;97562.94;4917736;28;20221;-80
2023/04/30 05:20:52;;;;;;;22.88;17.67;;;;;;;13.57;60.81;97575.06;4918053;28;20229;-80
2023/04/30 05:23:18;;;;;;;23.15;16.58;;;;;;;13.36;61.35;97575.97;4899512;28;20132;-82
2023/04/30 05:25:44;;;;;;;23.33;16.60;;;;;;;13.53;61.22;97563.50;4881719;28;20768;-80
2023/04/30 05:28:10;;;;;;;22.77;16.98;;;;;;;13.36;61.04;97574.13;4919629;28;20230;-81
2023/04/30 05:30:36;;;;;;;22.05;16.85;;;;;;;13.51;61.02;97572.66;4918567;28;20254;-80
2023/04/30 05:33:02;;;;;;;22.58;16.85;;;;;;;13.52;60.79;97572.41;4923047;28;20536;-82
2023/04/30 05:35:29;;;;;;;22.35;16.20;;;;;;;13.55;60.54;97569.25;4915267;28;20320;-79
2023/04/30 05:37:54;;;;;;;22.20;16.15;;;;;;;13.38;60.92;97560.78;4886041;28;20400;-81
2023/04/30 05:40:29;;;;;;;22.08;16.02;;;;;;;13.67;60.68;97562.03;4893202;28;20459;-79
2023/04/30 05:42:55;;;;;;;21.67;16.88;;;;;;;13.67;60.33;97572.50;4928658;28;20254;-80
2023/04/30 05:45:20;;;;;;;22.45;17.05;;;;;;;13.43;60.39;97560.81;4926982;28;20316;-81
2023/04/30 05:47:49;;;;;;;20.98;15.90;;;;;;;13.66;60.82;97576.13;4903562;28;20597;-81
2023/04/30 05:50:15;;;;;;;25.05;18.33;;;;;;;13.65;60.65;97560.69;4917452;28;20253;-80
2023/04/30 05:52:40;;;;;;;21.40;15.77;;;;;;;13.61;60.87;97576.13;4885918;28;20269;-82
2023/04/30 05:55:06;;;;;;;21.83;15.70;;;;;;;13.75;60.53;97573.03;4916989;28;20394;-80
2023/04/30 05:57:32;;;;;;;21.73;15.32;;;;;;;13.70;60.55;97567.78;4907328;28;20135;-80
2023/04/30 05:59:57;;;;;;;23.45;15.55;;;;;;;13.60;60.64;97571.91;4919531;28;20298;-80
2023/04/30 06:02:23;;;;;;;20.73;14.63;;;;;;;13.76;59.64;97571.97;4917275;28;20227;-81
2023/04/30 06:04:48;;;;;;;19.70;14.75;;;;;;;13.91;59.68;97558.97;4910601;28;20262;-82
2023/04/30 06:07:13;;;;;;;19.25;15.93;;;;;;;13.83;59.38;97556.88;4892687;28;20294;-81
2023/04/30 06:09:39;;;;;;;21.70;16.00;;;;;;;14.10;59.52;97576.84;4893589;28;20281;-83
2023/04/30 06:12:04;;;;;;;20.05;15.02;;;;;;;13.85;59.10;97565.25;4897076;28;20305;-81
2023/04/30 06:14:30;;;;;;;19.63;15.05;;;;;;;13.74;59.66;97566.22;4921800;28;20282;-80
2023/04/30 06:16:55;;;;;;;19.23;14.77;;;;;;;13.67;60.08;97576.91;4915114;28;20178;-83
2023/04/30 06:19:21;;;;;;;17.52;14.10;;;;;;;13.83;59.11;97556.88;4916950;28;20250;-83
2023/04/30 06:21:46;;;;;;;17.95;13.68;;;;;;;13.85;58.89;97557.38;4888214;28;20221;-78
2023/04/30 06:24:11;;;;;;;19.33;15.30;;;;;;;13.95;59.41;97565.28;4898520;28;20182;-81
2023/04/30 06:26:37;;;;;;;18.67;14.25;;;;;;;13.93;59.18;97567.38;4895635;28;20199;-81
2023/04/30 06:29:02;;;;;;;20.35;14.57;;;;;;;13.98;59.20;97569.19;4895798;28;20106;-82
2023/04/30 06:31:28;;;;;;;18.63;13.80;;;;;;;14.15;58.78;97567.16;4900480;28;20282;-80
2023/04/30 06:33:53;;;;;;;18.10;13.90;;;;;;;14.23;58.77;97565.88;4889888;28;20508;-82
2023/04/30 06:36:19;;;;;;;16.85;13.43;;;;;;;14.54;57.87;97565.94;4901927;28;20312;-81
2023/04/30 06:38:47;;;;;;;19.08;13.70;;;;;;;14.67;58.25;97560.25;4899969;28;20344;-80
2023/04/30 06:41:14;;;;;;;16.52;13.27;;;;;;;14.77;57.71;97562.88;4926736;28;20140;-81
2023/04/30 06:43:39;;;;;;;16.30;13.57;;;;;;;14.54;57.30;97551.00;4920023;28;20027;-82
2023/04/30 06:46:05;;;;;;;15.80;13.05;;;;;;;14.95;57.41;97564.16;4906605;28;20178;-82
2023/04/30 06:48:31;;;;;;;17.00;12.63;;;;;;;14.93;56.73;97568.13;4896407;28;20084;-81
2023/04/30 06:50:56;;;;;;;14.27;12.30;;;;;;;15.18;55.64;97564.66;4921546;28;20466;-82
2023/04/30 06:53:22;;;;;;;13.40;12.00;;;;;;;15.30;56.59;97570.44;4897199;28;20190;-81
2023/04/30 06:55:47;;;;;;;16.85;12.02;;;;;;;15.40;55.54;97563.59;4907698;28;20030;-81
2023/04/30 06:58:13;;;;;;;18.73;11.80;;;;;;;15.45;54.76;97555.72;4900855;28;20107;-82
2023/04/30 07:00:39;;;;;;;16.08;10.95;;;;;;;15.46;54.76;97563.31;4917322;28;20452;-82
2023/04/30 07:03:04;;;;;;;12.65;10.98;;;;;;;15.94;54.48;97570.03;4914603;28;20513;-81
2023/04/30 07:05:30;;;;;;;12.80;10.93;;;;;;;15.74;54.36;97561.16;4900716;28;20345;-82
2023/04/30 07:07:56;;;;;;;14.18;11.00;;;;;;;15.94;53.69;97564.75;4887654;28;20360;-81
2023/04/30 07:10:22;;;;;;;13.27;9.35;;;;;;;16.26;53.92;97566.97;4909569;28;20228;-81
2023/04/30 07:12:47;;;;;;;12.10;9.75;;;;;;;16.33;52.12;97553.53;4925222;28;20205;-81
2023/04/30 07:15:13;;;;;;;10.75;9.27;;;;;;;16.71;51.76;97554.63;4884026;28;20179;-80
2023/04/30 07:17:40;;;;;;;10.38;9.30;;;;;;;16.29;51.24;97561.97;4916708;28;20316;-79
2023/04/30 07:20:07;;;;;;;10.32;9.30;;;;;;;16.44;51.81;97561.09;4889709;28;20364;-81
2023/04/30 07:22:33;;;;;;;11.27;8.90;;;;;;;16.20;52.70;97558.34;4908108;28;20287;-79
2023/04/30 07:24:59;;;;;;;13.10;10.40;;;;;;;16.37;51.60;97565.88;4921100;28;20448;-82
2023/04/30 07:27:25;;;;;;;21.20;14.30;;;;;;;16.20;51.85;97566.22;4899110;28;20702;-80
2023/04/30 07:29:50;;;;;;;12.68;10.07;;;;;;;16.40;52.11;97564.53;4895889;28;20200;-81
2023/04/30 07:32:16;;;;;;;8.82;7.93;;;;;;;16.46;51.48;97556.34;4910833;28;20272;-79
2023/04/30 07:34:41;;;;;;;18.40;13.35;;;;;;;16.74;50.59;97558.53;4912337;28;20226;-82
2023/04/30 07:37:08;;;;;;;9.85;8.65;;;;;;;17.22;50.03;97562.13;4883973;28;20225;-81
2023/04/30 07:39:35;;;;;;;13.68;10.82;;;;;;;17.25;49.31;97560.75;4920961;28;20202;-81
2023/04/30 07:42:02;;;;;;;12.88;11.30;;;;;;;17.32;49.12;97565.69;4908837;28;20245;-81
2023/04/30 07:44:28;;;;;;;10.38;9.15;;;;;;;17.39;49.04;97566.16;4921416;28;20305;-81
2023/04/30 07:46:55;;;;;;;11.90;9.32;;;;;;;17.04;49.01;97563.56;4917508;28;20456;-82
2023/04/30 07:49:20;;;;;;;14.85;10.93;;;;;;;17.28;49.49;97559.44;4890287;28;20213;-80
2023/04/30 07:51:46;;;;;;;9.68;8.27;;;;;;;17.23;48.48;97562.91;4913695;28;20281;-83
2023/04/30 07:54:11;;;;;;;11.63;9.77;;;;;;;17.06;49.14;97552.00;4918132;28;20251;-82
2023/04/30 07:56:37;;;;;;;26.55;15.93;;;;;;;17.72;48.77;97558.47;4887888;28;20163;-81
2023/04/30 07:59:02;;;;;;;45.63;25.52;;;;;;;17.96;47.47;97556.59;4891985;28;20103;-83
2023/04/30 08:01:27;;;;;;;13.18;10.32;;;;;;;18.01;47.88;97552.31;4898251;28;20398;-81
2023/04/30 08:03:53;;;;;;;11.68;9.68;;;;;;;17.94;46.96;97558.75;4884521;28;20245;-80
2023/04/30 08:06:18;;;;;;;12.10;10.02;;;;;;;18.09;47.91;97560.38;4913536;28;20329;-81
2023/04/30 08:08:44;;;;;;;10.02;8.20;;;;;;;18.19;45.68;97562.09;4889842;28;20385;-82
2023/04/30 08:11:10;;;;;;;8.98;7.57;;;;;;;18.16;45.42;97562.66;4901731;28;20186;-81
2023/04/30 08:13:35;;;;;;;9.82;8.23;;;;;;;17.99;45.98;97565.78;4884184;28;20393;-82
2023/04/30 08:16:01;;;;;;;7.85;7.05;;;;;;;18.68;45.69;97560.13;4880929;28;20498;-81
2023/04/30 08:18:26;;;;;;;8.75;7.35;;;;;;;19.24;44.70;97559.22;4903783;28;20384;-83
2023/04/30 08:20:52;;;;;;;7.68;6.85;;;;;;;19.35;42.85;97559.03;4898997;28;20182;-80
2023/04/30 08:23:17;;;;;;;7.55;6.85;;;;;;;19.51;43.59;97555.03;4877024;28;20227;-80
2023/04/30 08:25:42;;;;;;;7.53;6.35;;;;;;;18.36;44.18;97560.84;4881714;28;20579;-80
2023/04/30 08:28:08;;;;;;;8.27;7.47;;;;;;;18.21;44.65;97552.06;4887078;28;20448;-82
2023/04/30 08:30:33;;;;;;;6.88;6.15;;;;;;;18.12;44.09;97570.34;4904847;28;20269;-81
2023/04/30 08:32:59;;;;;;;7.38;6.65;;;;;;;17.82;45.56;97573.34;4917073;28;20408;-81
2023/04/30 08:35:24;;;;;;;7.30;6.68;;;;;;;18.06;45.52;97573.34;4899966;28;20302;-82
2023/04/30 08:37:50;;;;;;;7.63;6.70;;;;;;;17.60;44.38;97561.47;4912869;28;21502;-79
2023/04/30 08:40:15;;;;;;;6.13;5.60;;;;;;;18.25;44.47;97568.09;4885258;28;20206;-81
2023/04/30 08:42:47;;;;;;;7.50;6.60;;;;;;;17.90;43.74;97564.84;4898657;28;20590;-82
2023/04/30 08:45:13;;;;;;;6.45;5.65;;;;;;;17.89;44.78;97566.72;4908605;28;20392;-81
2023/04/30 08:47:39;;;;;;;8.95;7.78;;;;;;;17.80;44.09;97568.34;4899841;28;20167;-80
2023/04/30 08:50:05;;;;;;;7.13;6.50;;;;;;;17.51;43.08;97568.41;4908805;28;20268;-80
2023/04/30 08:52:33;;;;;;;4.65;4.22;;;;;;;17.74;42.92;97570.25;4899678;28;20191;-81
2023/04/30 08:55:00;;;;;;;4.32;3.95;;;;;;;17.88;42.13;97574.88;4909300;28;20189;-81
2023/04/30 08:57:25;;;;;;;5.43;4.93;;;;;;;17.83;42.88;97569.66;4900289;28;20186;-83
2023/04/30 08:59:52;;;;;;;6.40;4.97;;;;;;;17.31;42.48;97564.16;4901207;28;20268;-81
2023/04/30 09:02:18;;;;;;;3.97;3.58;;;;;;;17.34;42.15;97559.13;4901174;28;20099;-82
2023/04/30 09:04:43;;;;;;;4.70;4.30;;;;;;;17.10;42.84;97560.91;4899245;28;20254;-82
2023/04/30 09:07:10;;;;;;;5.55;5.05;;;;;;;17.22;42.78;97561.31;4894482;28;20164;-81
2023/04/30 09:09:39;;;;;;;5.10;4.00;;;;;;;17.50;43.87;97582.66;4908979;28;20257;-81
2023/04/30 09:12:19;;;;;;;5.07;4.57;;;;;;;17.46;42.38;97568.47;4903984;28;20201;-80
2023/04/30 09:14:58;;;;;;;4.63;3.88;;;;;;;17.67;42.95;97576.94;4905390;28;20258;-83
2023/04/30 09:17:24;;;;;;;4.53;4.13;;;;;;;17.33;43.25;97573.31;4927046;28;20408;-84
2023/04/30 09:19:50;;;;;;;4.22;3.83;;;;;;;17.32;43.25;97563.06;4919466;28;20683;-82
2023/04/30 09:22:22;;;;;;;4.40;4.00;;;;;;;17.45;42.67;97572.16;4912374;28;20261;-82
2023/04/30 09:24:49;;;;;;;7.63;3.70;;;;;;;17.09;41.86;97567.25;4912232;28;20188;-83
2023/04/30 09:27:20;;;;;;;3.53;3.22;;;;;;;17.00;42.07;97574.94;4886218;28;20371;-81
2023/04/30 09:29:45;;;;;;;3.33;3.05;;;;;;;16.81;42.81;97577.41;4897096;28;20223;-82
2023/04/30 09:32:11;;;;;;;3.47;3.03;;;;;;;16.77;41.30;97587.69;4914751;28;20374;-81
2023/04/30 09:34:36;;;;;;;3.40;3.10;;;;;;;17.23;40.76;97571.56;4907921;28;20421;-84
2023/04/30 09:37:02;;;;;;;3.20;2.78;;;;;;;17.24;40.27;97564.47;4901202;28;20247;-83
2023/04/30 09:39:28;;;;;;;4.82;3.65;;;;;;;17.28;41.93;97569.97;4890488;28;20306;-83
2023/04/30 09:42:07;;;;;;;5.18;4.30;;;;;;;16.99;43.54;97574.13;4899096;28;20615;-83
2023/04/30 09:44:36;;;;;;;4.85;4.03;;;;;;;17.25;43.34;97573.16;4905454;28;20167;-84
2023/04/30 09:47:02;;;;;;;4.50;3.67;;;;;;;17.32;42.67;97553.31;4904599;28;20367;-80
2023/04/30 09:49:27;;;;;;;5.18;3.55;;;;;;;17.35;41.85;97555.41;4923608;28;20299;-82
2023/04/30 09:51:56;;;;;;;4.72;3.50;;;;;;;17.64;41.63;97566.97;4887948;28;20204;-81
2023/04/30 09:54:29;;;;;;;3.30;2.90;;;;;;;17.84;42.05;97576.47;4886414;28;20176;-82
2023/04/30 09:57:00;;;;;;;4.38;3.42;;;;;;;17.63;42.03;97576.69;4896831;28;20695;-83
2023/04/30 09:59:31;;;;;;;4.38;3.50;;;;;;;17.69;41.59;97586.13;4882879;28;20210;-81
2023/04/30 10:01:59;;;;;;;3.72;3.42;;;;;;;17.78;42.61;97575.75;4889909;28;20202;-82
2023/04/30 10:04:26;;;;;;;4.10;3.70;;;;;;;17.67;43.25;97551.38;4879385;28;20476;-82
2023/04/30 10:06:53;;;;;;;5.88;4.10;;;;;;;17.62;43.25;97577.78;4889420;28;20230;-79
2023/04/30 10:09:19;;;;;;;4.25;3.60;;;;;;;17.64;42.38;97562.47;4887236;28;20149;-83
2023/04/30 10:11:45;;;;;;;4.57;4.18;;;;;;;17.54;42.51;97571.25;4893224;28;20198;-81
2023/04/30 10:14:12;;;;;;;5.10;4.60;;;;;;;17.37;42.45;97563.03;4909454;28;20122;-83
2023/04/30 10:16:58;;;;;;;3.97;3.60;;;;;;;17.94;42.09;97569.28;4897193;28;20270;-83
2023/04/30 10:19:31;;;;;;;4.70;4.15;;;;;;;17.60;42.38;97572.78;4895114;28;20184;-82
2023/04/30 10:21:57;;;;;;;4.55;4.00;;;;;;;17.16;42.40;97565.06;4911982;28;20269;-82
2023/04/30 10:24:22;;;;;;;3.85;3.45;;;;;;;17.45;42.63;97562.41;4894701;28;20964;-81
2023/04/30 10:26:48;;;;;;;3.80;3.38;;;;;;;17.61;42.46;97563.03;4927378;28;20291;-81
2023/04/30 10:29:15;;;;;;;4.03;3.45;;;;;;;17.74;42.21;97559.72;4906519;28;20195;-84
2023/04/30 10:31:42;;;;;;;3.38;3.08;;;;;;;17.85;42.88;97543.81;4888939;28;20370;-84
2023/04/30 10:34:45;;;;;;;3.55;3.22;;;;;;;17.94;41.68;97556.09;4919008;28;20193;-80
2023/04/30 10:37:31;;;;;;;4.15;3.05;;;;;;;18.22;41.96;97545.72;4914814;28;20240;-82
2023/04/30 10:39:56;;;;;;;4.47;3.90;;;;;;;18.42;41.62;97546.50;4900695;28;20649;-82
2023/04/30 10:42:21;;;;;;;4.40;3.58;;;;;;;18.29;40.59;97546.16;4921019;28;20198;-81
2023/04/30 10:44:47;;;;;;;3.55;3.00;;;;;;;17.97;40.31;97538.94;4884268;28;20208;-80
2023/04/30 10:47:13;;;;;;;4.10;3.03;;;;;;;18.17;40.66;97543.16;4900259;28;20108;-82
2023/04/30 10:49:41;;;;;;;3.00;2.80;;;;;;;18.32;39.70;97524.50;4894601;28;20209;-79
2023/04/30 10:52:10;;;;;;;3.42;3.13;;;;;;;19.09;39.32;97519.91;4904421;28;20215;-83
2023/04/30 10:54:36;;;;;;;2.92;2.30;;;;;;;19.53;39.06;97523.81;4883309;28;20384;-81
2023/04/30 10:57:13;;;;;;;3.33;2.63;;;;;;;19.94;37.45;97524.91;4873784;28;20189;-81
2023/04/30 10:59:46;;;;;;;3.38;2.60;;;;;;;20.18;38.06;97522.00;4910421;28;20277;-82
2023/04/30 11:02:14;;;;;;;2.78;2.28;;;;;;;20.19;36.79;97515.66;4880467;28;20175;-81
2023/04/30 11:05:08;;;;;;;3.58;2.95;;;;;;;19.97;37.29;97522.44;4925837;28;20653;-83
2023/04/30 11:07:34;;;;;;;4.75;3.30;;;;;;;19.44;37.19;97526.38;4874421;28;20270;-82
2023/04/30 11:10:01;;;;;;;4.80;3.40;;;;;;;18.92;38.56;97519.66;4907860;28;20262;-81
2023/04/30 11:12:27;;;;;;;3.88;3.58;;;;;;;18.49;39.19;97528.47;4906213;28;20201;-83
2023/04/30 11:14:59;;;;;;;3.65;3.30;;;;;;;18.33;38.99;97535.81;4900778;28;20185;-80
2023/04/30 11:17:26;;;;;;;4.57;3.67;;;;;;;18.90;40.00;97520.72;4889912;28;20222;-81
2023/04/30 11:19:52;;;;;;;3.28;2.97;;;;;;;19.35;40.28;97516.78;4882875;28;20045;-81
2023/04/30 11:22:21;;;;;;;3.30;3.00;;;;;;;19.83;38.17;97505.84;4883997;28;20092;-80